createdAt,value
2023-10-16T00:01:33.674Z,43.42
2023-10-16T00:04:02.533Z,43.75
2023-10-16T00:06:30.958Z,43.58
2023-10-16T00:09:15.867Z,43.81
2023-10-16T00:11:44.439Z,43.85
2023-10-16T00:14:25.652Z,44.04
2023-10-16T00:16:54.215Z,43.53
2023-10-16T00:19:25.675Z,43.32
2023-10-16T00:21:53.933Z,43.58
2023-10-16T00:24:22.565Z,43.96
2023-10-16T00:26:50.920Z,43.64
2023-10-16T00:29:37.117Z,43.26
2023-10-16T00:32:08.657Z,42.89
2023-10-16T00:34:37.192Z,42.48
2023-10-16T00:37:06.256Z,42.38
2023-10-16T00:39:36.872Z,41.68
2023-10-16T00:42:10.120Z,40.96
2023-10-16T00:44:41.655Z,41.09
2023-10-16T00:47:13.189Z,41.42
2023-10-16T00:49:41.693Z,40.60
2023-10-16T00:52:12.111Z,40.63
2023-10-16T00:54:41.586Z,40.69
2023-10-16T00:57:13.823Z,40.75
2023-10-16T00:59:43.614Z,40.54
2023-10-16T01:02:17.579Z,40.99
2023-10-16T01:04:48.971Z,40.81
2023-10-16T01:07:17.593Z,41.26
2023-10-16T01:09:49.395Z,40.59
2023-10-16T01:12:21.878Z,41.46
2023-10-16T01:14:50.779Z,41.41
2023-10-16T01:17:31.307Z,41.56
2023-10-16T01:20:01.141Z,41.62
2023-10-16T01:22:31.433Z,41.34
2023-10-16T01:25:02.726Z,41.66
2023-10-16T01:27:31.794Z,41.92
2023-10-16T01:30:03.953Z,42.10
2023-10-16T01:32:32.981Z,42.25
2023-10-16T01:35:02.027Z,42.23
2023-10-16T01:37:31.833Z,41.98
2023-10-16T01:40:23.351Z,41.88
2023-10-16T01:42:56.169Z,41.94
2023-10-16T01:45:28.612Z,41.47
2023-10-16T01:47:57.315Z,41.34
2023-10-16T01:50:28.934Z,41.54
2023-10-16T01:52:57.039Z,41.97
2023-10-16T01:55:26.588Z,41.67
2023-10-16T01:58:01.012Z,41.38
2023-10-16T02:00:36.142Z,41.53
2023-10-16T02:03:10.108Z,41.24
2023-10-16T02:05:42.951Z,41.20
2023-10-16T02:08:14.115Z,40.91
2023-10-16T02:10:45.976Z,41.32
2023-10-16T02:13:14.344Z,40.69
2023-10-16T02:15:44.827Z,40.64
2023-10-16T02:18:25.362Z,40.81
2023-10-16T02:20:54.348Z,40.53
2023-10-16T02:23:22.382Z,40.95
2023-10-16T02:25:51.036Z,40.87
2023-10-16T02:28:21.198Z,40.69
2023-10-16T02:30:51.115Z,40.74
2023-10-16T02:33:19.464Z,41.09
2023-10-16T02:35:49.878Z,41.43
2023-10-16T02:38:30.629Z,41.57
2023-10-16T02:41:06.462Z,41.71
2023-10-16T02:43:43.149Z,41.70
2023-10-16T02:46:11.777Z,41.70
2023-10-16T02:48:43.738Z,42.10
2023-10-16T02:51:12.914Z,42.03
2023-10-16T02:53:43.713Z,42.29
2023-10-16T02:56:18.796Z,42.30
2023-10-16T02:58:56.512Z,42.28
2023-10-16T03:01:25.121Z,41.99
2023-10-16T03:03:54.013Z,42.04
2023-10-16T03:06:23.115Z,42.11
2023-10-16T03:08:51.936Z,42.09
2023-10-16T03:11:22.402Z,42.36
2023-10-16T03:13:53.490Z,42.11
2023-10-16T03:16:25.648Z,42.18
2023-10-16T03:19:17.852Z,42.01
2023-10-16T03:21:47.101Z,41.91
2023-10-16T03:24:17.361Z,42.21
2023-10-16T03:26:45.800Z,41.87
2023-10-16T03:29:13.814Z,42.18
2023-10-16T03:31:42.282Z,42.04
2023-10-16T03:34:13.300Z,41.79
2023-10-16T03:36:43.019Z,41.66
2023-10-16T03:39:13.709Z,41.37
2023-10-16T03:41:43.975Z,41.55
2023-10-16T03:44:15.880Z,41.83
2023-10-16T03:46:45.978Z,41.52
2023-10-16T03:49:16.506Z,41.69
2023-10-16T03:51:49.938Z,41.30
2023-10-16T03:54:25.525Z,41.10
2023-10-16T03:56:54.801Z,41.19
2023-10-16T03:59:23.032Z,40.52
2023-10-16T04:01:51.602Z,40.62
2023-10-16T04:04:19.880Z,40.95
2023-10-16T04:06:50.340Z,40.54
2023-10-16T04:09:19.286Z,40.71
2023-10-16T04:11:55.918Z,40.65
2023-10-16T04:14:46.561Z,40.68
2023-10-16T04:17:15.061Z,40.08
2023-10-16T04:20:01.207Z,40.22
2023-10-16T04:22:44.557Z,39.33
2023-10-16T04:25:19.821Z,39.67
2023-10-16T04:27:56.338Z,39.51
2023-10-16T04:30:24.422Z,38.81
2023-10-16T04:33:15.500Z,38.55
2023-10-16T04:35:43.620Z,38.51
2023-10-16T04:38:33.034Z,38.60
2023-10-16T04:41:19.946Z,38.63
2023-10-16T04:44:14.812Z,38.53
2023-10-16T04:47:01.841Z,38.11
2023-10-16T04:49:30.543Z,38.09
2023-10-16T04:52:09.052Z,38.30
2023-10-16T04:54:56.209Z,38.39
2023-10-16T04:57:27.406Z,38.24
2023-10-16T05:00:13.745Z,38.44
2023-10-16T05:02:45.591Z,38.06
2023-10-16T05:05:32.590Z,37.83
2023-10-16T05:08:19.326Z,37.95
2023-10-16T05:11:13.456Z,38.47
2023-10-16T05:13:44.590Z,38.07
2023-10-16T05:16:33.333Z,37.81
2023-10-16T05:19:05.347Z,37.97
2023-10-16T05:21:44.264Z,38.02
2023-10-16T05:24:30.759Z,38.20
2023-10-16T05:27:18.118Z,37.91
2023-10-16T05:30:05.109Z,38.39
2023-10-16T05:32:51.978Z,38.41
2023-10-16T05:35:38.799Z,38.72
2023-10-16T05:38:26.033Z,38.46
2023-10-16T05:41:29.035Z,38.03
2023-10-16T05:44:16.850Z,38.21
2023-10-16T05:47:04.677Z,38.65
2023-10-16T05:49:51.422Z,38.01
2023-10-16T05:52:38.207Z,38.06
2023-10-16T05:55:25.476Z,37.94
2023-10-16T05:58:19.810Z,38.38
2023-10-16T06:01:06.861Z,38.13
2023-10-16T06:03:53.657Z,37.84
2023-10-16T06:06:40.890Z,38.12
2023-10-16T06:09:27.866Z,37.95
2023-10-16T06:12:15.320Z,37.80
2023-10-16T06:14:46.736Z,37.62
2023-10-16T06:17:17.490Z,37.54
2023-10-16T06:19:45.689Z,37.50
2023-10-16T06:22:14.459Z,37.26
2023-10-16T06:25:00.752Z,37.01
2023-10-16T06:27:35.353Z,36.91
2023-10-16T06:30:07.307Z,36.70
2023-10-16T06:32:38.802Z,36.60
2023-10-16T06:35:09.474Z,36.53
2023-10-16T06:37:39.835Z,36.31
2023-10-16T06:40:17.721Z,36.36
2023-10-16T06:42:49.378Z,35.97
2023-10-16T06:45:24.183Z,36.17
2023-10-16T06:47:56.496Z,35.81
2023-10-16T06:50:24.635Z,35.94
2023-10-16T06:52:55.566Z,36.10
2023-10-16T06:55:23.898Z,35.80
2023-10-16T06:57:52.563Z,35.96
2023-10-16T07:00:33.922Z,36.08
2023-10-16T07:03:11.156Z,35.97
2023-10-16T07:05:46.166Z,36.15
2023-10-16T07:08:20.030Z,36.04
2023-10-16T07:10:51.911Z,35.75
2023-10-16T07:13:29.294Z,36.15
2023-10-16T07:16:03.821Z,35.94
2023-10-16T07:18:36.020Z,36.42
2023-10-16T07:21:08.817Z,36.52
2023-10-16T07:23:38.485Z,35.85
2023-10-16T07:26:10.712Z,35.56
2023-10-16T07:28:41.360Z,35.03
2023-10-16T07:31:12.393Z,35.46
2023-10-16T07:33:44.074Z,34.91
2023-10-16T07:36:14.844Z,34.95
2023-10-16T07:38:43.429Z,34.80
2023-10-16T07:41:14.215Z,34.39
2023-10-16T07:43:47.765Z,34.22
2023-10-16T07:46:31.899Z,34.26
2023-10-16T07:49:11.503Z,33.80
2023-10-16T07:51:47.270Z,33.87
2023-10-16T07:54:16.114Z,33.40
2023-10-16T07:56:46.035Z,32.60
2023-10-16T07:59:20.092Z,33.22
2023-10-16T08:01:59.315Z,32.23
2023-10-16T08:04:28.610Z,32.57
2023-10-16T08:07:06.149Z,32.67
2023-10-16T08:09:36.493Z,32.55
2023-10-16T08:12:15.066Z,32.09
2023-10-16T08:14:43.530Z,31.58
2023-10-16T08:17:19.166Z,30.71
2023-10-16T08:19:50.894Z,30.98
2023-10-16T08:22:19.118Z,30.40
2023-10-16T08:25:06.229Z,30.42
2023-10-16T08:27:40.451Z,29.98
2023-10-16T08:30:19.912Z,30.24
2023-10-16T08:32:49.330Z,30.43
2023-10-16T08:35:24.128Z,29.88
2023-10-16T08:38:01.208Z,30.05
2023-10-16T08:40:36.983Z,29.66
2023-10-16T08:43:05.977Z,29.93
2023-10-16T08:45:35.044Z,29.76
2023-10-16T08:48:06.989Z,29.65
2023-10-16T08:50:43.198Z,29.92
2023-10-16T08:53:32.428Z,30.04
2023-10-16T08:56:10.092Z,29.71
2023-10-16T08:58:46.012Z,29.44
2023-10-16T09:01:18.676Z,29.80
2023-10-16T09:03:58.433Z,29.96
2023-10-16T09:06:27.156Z,29.64
2023-10-16T09:08:56.405Z,29.45
2023-10-16T09:11:28.557Z,29.43
2023-10-16T09:13:56.933Z,29.44
2023-10-16T09:16:26.678Z,29.55
2023-10-16T09:18:55.746Z,30.57
2023-10-16T09:21:29.617Z,31.35
2023-10-16T09:24:01.851Z,31.25
2023-10-16T09:26:39.501Z,31.56
2023-10-16T09:29:16.669Z,31.85
2023-10-16T09:31:46.481Z,31.15
2023-10-16T09:34:19.825Z,30.20
2023-10-16T09:37:12.338Z,29.94
2023-10-16T09:39:50.837Z,29.69
2023-10-16T09:42:25.942Z,30.14
2023-10-16T09:44:58.211Z,29.81
2023-10-16T09:47:27.962Z,30.15
2023-10-16T09:50:01.070Z,30.08
2023-10-16T09:52:32.864Z,29.29
2023-10-16T09:55:01.973Z,29.19
2023-10-16T09:57:32.721Z,29.08
2023-10-16T10:00:22.665Z,28.85
2023-10-16T10:02:54.690Z,28.51
2023-10-16T10:05:24.048Z,28.29
2023-10-16T10:08:00.197Z,28.58
2023-10-16T10:10:34.639Z,28.27
2023-10-16T10:13:10.572Z,27.34
2023-10-16T10:15:46.318Z,26.46
2023-10-16T10:18:43.927Z,26.37
2023-10-16T10:21:19.946Z,27.55
2023-10-16T10:23:49.721Z,27.74
2023-10-16T10:26:21.957Z,28.20
2023-10-16T10:29:10.982Z,28.86
2023-10-16T10:31:43.860Z,28.27
2023-10-16T10:34:24.808Z,28.10
2023-10-16T10:36:54.839Z,28.24
2023-10-16T10:39:23.614Z,27.48
2023-10-16T10:41:55.823Z,27.65
2023-10-16T10:44:39.230Z,26.77
2023-10-16T10:47:32.564Z,27.24
2023-10-16T10:50:13.371Z,27.68
2023-10-16T10:52:43.026Z,27.35
2023-10-16T10:55:24.371Z,27.20
2023-10-16T10:57:59.301Z,27.02
2023-10-16T11:00:28.603Z,26.21
2023-10-16T11:03:02.804Z,26.33
2023-10-16T11:05:35.247Z,25.72
2023-10-16T11:08:11.708Z,26.28
2023-10-16T11:10:45.776Z,25.92
2023-10-16T11:13:16.409Z,26.51
2023-10-16T11:15:56.004Z,26.03
2023-10-16T11:18:28.027Z,26.67
2023-10-16T11:21:06.539Z,26.45
2023-10-16T11:23:41.762Z,27.45
2023-10-16T11:26:15.342Z,26.84
2023-10-16T11:28:50.478Z,25.77
2023-10-16T11:31:20.684Z,25.03
2023-10-16T11:34:08.225Z,24.55
2023-10-16T11:36:42.031Z,25.33
2023-10-16T11:39:21.021Z,25.73
2023-10-16T11:41:50.638Z,23.70
2023-10-16T11:44:20.781Z,22.88
2023-10-16T11:46:54.127Z,23.12
2023-10-16T11:49:24.480Z,24.19
2023-10-16T11:51:54.787Z,24.45
2023-10-16T11:54:25.163Z,26.05
2023-10-16T11:56:59.694Z,25.20
2023-10-16T11:59:30.052Z,24.46
2023-10-16T12:02:04.524Z,23.23
2023-10-16T12:04:34.141Z,24.82
2023-10-16T12:07:03.076Z,25.14
2023-10-16T12:09:38.894Z,25.28
2023-10-16T12:12:09.124Z,25.70
2023-10-16T12:14:40.312Z,26.24
2023-10-16T12:17:13.577Z,25.70
2023-10-16T12:19:41.908Z,25.74
2023-10-16T12:22:10.722Z,26.32
2023-10-16T12:24:40.778Z,26.02
2023-10-16T12:27:09.785Z,24.68
2023-10-16T12:29:38.049Z,24.32
2023-10-16T12:32:06.532Z,23.77
2023-10-16T12:34:35.434Z,24.27
2023-10-16T12:37:08.572Z,24.38
2023-10-16T12:39:49.576Z,23.80
2023-10-16T12:42:20.272Z,24.56
2023-10-16T12:44:48.550Z,25.21
2023-10-16T12:47:28.198Z,24.09
2023-10-16T12:50:06.932Z,23.74
2023-10-16T12:52:35.382Z,24.25
2023-10-16T12:55:03.524Z,25.08
2023-10-16T12:57:33.842Z,24.77
2023-10-16T13:00:01.980Z,24.35
2023-10-16T13:02:30.603Z,24.86
2023-10-16T13:05:03.053Z,25.18
2023-10-16T13:07:42.271Z,25.15
2023-10-16T13:10:18.241Z,26.01
2023-10-16T13:12:47.463Z,25.88
2023-10-16T13:15:17.602Z,26.20
2023-10-16T13:17:46.230Z,25.79
2023-10-16T13:20:19.396Z,25.85
2023-10-16T13:22:51.195Z,25.35
2023-10-16T13:25:23.114Z,26.46
2023-10-16T13:27:52.991Z,27.12
2023-10-16T13:30:24.047Z,26.72
2023-10-16T13:32:52.988Z,27.03
2023-10-16T13:35:22.477Z,27.17
2023-10-16T13:37:52.127Z,26.37
2023-10-16T13:40:26.154Z,26.86
2023-10-16T13:42:56.779Z,27.25
2023-10-16T13:45:27.163Z,26.57
2023-10-16T13:47:56.671Z,26.88
2023-10-16T13:50:29.652Z,28.01
2023-10-16T13:52:58.278Z,27.82
2023-10-16T13:55:31.733Z,27.50
2023-10-16T13:58:00.210Z,27.02
2023-10-16T14:00:31.335Z,26.77
2023-10-16T14:03:11.125Z,26.85
2023-10-16T14:05:52.201Z,26.55
2023-10-16T14:08:32.405Z,26.52
2023-10-16T14:11:01.965Z,26.63
2023-10-16T14:13:33.861Z,26.55
2023-10-16T14:16:13.040Z,26.96
2023-10-16T14:18:45.736Z,26.80
2023-10-16T14:21:15.604Z,27.15
2023-10-16T14:24:03.405Z,27.40
2023-10-16T14:26:31.809Z,27.85
2023-10-16T14:29:05.517Z,27.83
2023-10-16T14:31:35.303Z,28.28
2023-10-16T14:34:07.343Z,28.10
2023-10-16T14:36:35.510Z,28.77
2023-10-16T14:39:06.435Z,28.89
2023-10-16T14:41:34.508Z,28.63
2023-10-16T14:44:16.938Z,28.70
2023-10-16T14:46:52.389Z,29.17
2023-10-16T14:49:21.488Z,28.87
2023-10-16T14:51:52.268Z,29.34
2023-10-16T14:54:23.473Z,29.18
2023-10-16T14:56:53.997Z,28.55
2023-10-16T14:59:35.574Z,27.54
2023-10-16T15:02:04.641Z,26.59
2023-10-16T15:04:34.326Z,26.50
2023-10-16T15:07:06.468Z,25.98
2023-10-16T15:09:36.518Z,27.66
2023-10-16T15:12:08.612Z,29.03
2023-10-16T15:14:37.494Z,29.31
2023-10-16T15:17:06.917Z,29.85
2023-10-16T15:19:40.321Z,29.89
2023-10-16T15:22:08.579Z,30.08
2023-10-16T15:24:38.800Z,29.24
2023-10-16T15:27:07.096Z,29.79
2023-10-16T15:29:36.465Z,30.19
2023-10-16T15:32:09.509Z,30.25
2023-10-16T15:34:37.951Z,29.95
2023-10-16T15:37:10.834Z,30.13
2023-10-16T15:39:40.726Z,29.89
2023-10-16T15:42:09.759Z,29.72
2023-10-16T15:44:38.492Z,29.88
2023-10-16T15:47:08.704Z,30.26
2023-10-16T15:49:37.895Z,30.68
2023-10-16T15:52:07.361Z,30.60
2023-10-16T15:54:35.789Z,30.69
2023-10-16T15:57:03.918Z,30.66
2023-10-16T15:59:32.855Z,31.41
2023-10-16T16:02:00.879Z,31.10
2023-10-16T16:04:30.074Z,31.04
2023-10-16T16:07:03.561Z,31.52
2023-10-16T16:09:31.893Z,31.37
2023-10-16T16:12:00.102Z,31.74
2023-10-16T16:14:29.021Z,31.20
2023-10-16T16:16:57.404Z,31.28
2023-10-16T16:19:26.356Z,31.70
2023-10-16T16:21:54.812Z,31.96
2023-10-16T16:24:23.230Z,31.89
2023-10-16T16:26:51.413Z,31.66
2023-10-16T16:29:20.060Z,31.67
2023-10-16T16:31:48.460Z,31.58
2023-10-16T16:34:17.023Z,31.75
2023-10-16T16:36:45.431Z,31.80
2023-10-16T16:39:19.798Z,31.35
2023-10-16T16:41:48.402Z,31.38
2023-10-16T16:44:17.041Z,31.39
2023-10-16T16:46:45.827Z,31.86
2023-10-16T16:49:14.646Z,31.61
2023-10-16T16:51:44.714Z,31.81
2023-10-16T16:54:14.154Z,31.80
2023-10-16T16:56:43.044Z,31.79
2023-10-16T16:59:14.445Z,31.83
2023-10-16T17:01:48.528Z,32.10
2023-10-16T17:04:18.207Z,31.91
2023-10-16T17:06:46.438Z,32.37
2023-10-16T17:09:19.474Z,32.30
2023-10-16T17:11:49.616Z,32.42
2023-10-16T17:14:20.205Z,32.60
2023-10-16T17:16:50.881Z,32.86
2023-10-16T17:19:20.110Z,32.38
2023-10-16T17:21:49.207Z,32.96
2023-10-16T17:24:17.793Z,33.02
2023-10-16T17:26:46.851Z,33.15
2023-10-16T17:29:16.063Z,33.10
2023-10-16T17:31:44.234Z,32.97
2023-10-16T17:34:15.291Z,33.04
2023-10-16T17:36:44.692Z,33.11
2023-10-16T17:39:15.112Z,32.84
2023-10-16T17:41:43.413Z,33.13
2023-10-16T17:44:11.757Z,33.10
2023-10-16T17:46:42.268Z,33.79
2023-10-16T17:49:11.066Z,33.55
2023-10-16T17:51:39.513Z,33.76
2023-10-16T17:54:10.501Z,33.36
2023-10-16T17:56:41.381Z,33.90
2023-10-16T17:59:13.005Z,33.67
2023-10-16T18:01:45.340Z,33.85
2023-10-16T18:04:14.602Z,33.87
2023-10-16T18:06:43.568Z,33.93
2023-10-16T18:09:12.430Z,34.06
2023-10-16T18:11:40.549Z,34.49
2023-10-16T18:14:09.115Z,34.48
2023-10-16T18:16:40.572Z,34.04
2023-10-16T18:19:12.344Z,34.59
2023-10-16T18:21:41.856Z,34.58
2023-10-16T18:40:02.240Z,35.04
2023-10-16T18:42:31.154Z,35.87
2023-10-16T18:44:59.369Z,35.99
2023-10-16T18:47:28.646Z,36.28
2023-10-16T18:49:56.814Z,36.83
2023-10-16T18:52:26.587Z,36.60
2023-10-16T18:54:54.904Z,37.42
2023-10-16T18:57:23.954Z,37.39
2023-10-16T18:59:52.232Z,37.65
2023-10-16T19:02:20.730Z,38.07
2023-10-16T19:04:48.837Z,38.15
2023-10-16T19:07:17.463Z,38.28
2023-10-16T19:09:45.521Z,38.16
2023-10-16T19:12:15.663Z,38.64
2023-10-16T19:14:43.942Z,38.40
2023-10-16T19:17:13.030Z,38.60
2023-10-16T19:19:41.227Z,38.78
2023-10-16T19:22:10.071Z,38.42
2023-10-16T19:24:38.194Z,38.21
2023-10-16T19:27:06.722Z,38.74
2023-10-16T19:29:35.053Z,38.96
2023-10-16T19:32:03.797Z,38.90
2023-10-16T19:34:32.360Z,38.24
2023-10-16T19:37:00.776Z,38.77
2023-10-16T19:39:29.044Z,39.17
2023-10-16T19:41:58.077Z,38.93
2023-10-16T19:44:26.993Z,38.79
2023-10-16T19:46:55.823Z,38.86
2023-10-16T19:49:25.036Z,38.94
2023-10-16T19:51:54.368Z,39.14
2023-10-16T19:54:25.049Z,39.29
2023-10-16T19:56:53.868Z,39.36
2023-10-16T19:59:21.897Z,39.30
2023-10-16T20:01:50.840Z,39.29
2023-10-16T20:04:20.761Z,39.27
2023-10-16T20:06:50.913Z,39.09
2023-10-16T20:09:31.904Z,38.99
2023-10-16T20:12:13.025Z,39.52
2023-10-16T20:14:48.654Z,39.52
2023-10-16T20:17:17.296Z,39.65
2023-10-16T20:19:47.075Z,39.76
2023-10-16T20:22:19.347Z,39.94
2023-10-16T20:24:48.890Z,39.72
2023-10-16T20:27:17.342Z,39.92
2023-10-16T20:29:45.405Z,40.09
2023-10-16T20:32:16.674Z,40.53
2023-10-16T20:34:48.086Z,40.58
2023-10-16T20:37:18.945Z,41.12
2023-10-16T20:39:51.501Z,41.06
2023-10-16T20:42:20.322Z,41.31
2023-10-16T20:44:48.616Z,41.28
2023-10-16T20:47:17.372Z,41.37
2023-10-16T20:49:45.799Z,41.39
2023-10-16T20:52:14.314Z,41.59
2023-10-16T20:54:42.384Z,42.13
2023-10-16T20:57:11.413Z,42.15
2023-10-16T20:59:39.559Z,42.00
2023-10-16T21:02:08.298Z,42.12
2023-10-16T21:04:38.432Z,41.91
2023-10-16T21:07:07.095Z,42.38
2023-10-16T21:09:35.406Z,42.63
2023-10-16T21:12:04.033Z,42.74
2023-10-16T21:14:32.274Z,42.56
2023-10-16T21:17:00.834Z,42.51
2023-10-16T21:19:30.031Z,43.04
2023-10-16T21:22:00.270Z,43.01
2023-10-16T21:24:28.716Z,43.58
2023-10-16T21:26:57.914Z,43.58
2023-10-16T21:29:25.968Z,43.12
2023-10-16T21:31:54.538Z,43.33
2023-10-16T21:34:22.679Z,43.33
2023-10-16T21:36:52.414Z,43.86
2023-10-16T21:39:21.022Z,43.39
2023-10-16T21:41:49.653Z,43.04
2023-10-16T21:44:19.580Z,43.10
2023-10-16T21:46:48.238Z,42.75
2023-10-16T21:49:17.118Z,42.58
2023-10-16T21:51:45.710Z,42.01
2023-10-16T21:54:13.864Z,42.29
2023-10-16T21:56:43.200Z,42.32
2023-10-16T21:59:11.532Z,42.64
2023-10-16T22:01:40.419Z,42.86
2023-10-16T22:04:09.757Z,43.10
2023-10-16T22:06:39.367Z,42.77
2023-10-16T22:09:11.403Z,42.56
2023-10-16T22:11:44.309Z,42.83
2023-10-16T22:14:20.205Z,43.13
2023-10-16T22:16:49.740Z,43.33
2023-10-16T22:19:20.911Z,43.15
2023-10-16T22:21:49.466Z,43.04
2023-10-16T22:24:17.862Z,43.17
2023-10-16T22:26:46.999Z,43.46
2023-10-16T22:29:15.151Z,43.15
2023-10-16T22:31:43.641Z,43.16
2023-10-16T22:34:11.703Z,43.37
2023-10-16T22:36:40.208Z,43.22
2023-10-16T22:39:11.525Z,43.19
2023-10-16T22:41:40.330Z,43.20
2023-10-16T22:44:08.845Z,43.12
2023-10-16T22:46:38.505Z,43.15
2023-10-16T22:49:09.133Z,42.80
2023-10-16T22:51:38.674Z,43.16
2023-10-16T22:54:08.425Z,42.57
2023-10-16T22:56:38.625Z,42.50
2023-10-16T22:59:09.075Z,42.35
2023-10-16T23:01:38.201Z,42.13
2023-10-16T23:04:06.858Z,42.26
2023-10-16T23:06:38.778Z,42.42
2023-10-16T23:09:30.347Z,42.44
2023-10-16T23:12:09.053Z,42.46
2023-10-16T23:14:41.138Z,42.40
2023-10-16T23:17:19.868Z,42.00
2023-10-16T23:19:49.083Z,41.89
2023-10-16T23:22:18.926Z,42.35
2023-10-16T23:24:47.205Z,42.63
2023-10-16T23:27:17.598Z,42.60
2023-10-16T23:29:46.597Z,42.71
2023-10-16T23:32:17.380Z,43.11
2023-10-16T23:34:55.747Z,42.96
2023-10-16T23:37:33.515Z,43.00
2023-10-16T23:40:11.956Z,43.16
2023-10-16T23:42:41.088Z,43.15
2023-10-16T23:45:09.733Z,43.01
2023-10-16T23:47:38.599Z,42.80
2023-10-16T23:50:09.056Z,43.03
2023-10-16T23:52:40.542Z,43.39
2023-10-16T23:55:15.348Z,43.44
2023-10-16T23:57:50.106Z,43.84
